createdAt,value
2023-02-04T00:00:37.531Z,8.00
2023-02-04T00:03:06.896Z,8.00
2023-02-04T00:05:35.499Z,7.90
2023-02-04T00:08:05.833Z,7.90
2023-02-04T00:10:34.416Z,7.90
2023-02-04T00:13:02.889Z,7.90
2023-02-04T00:15:31.369Z,7.90
2023-02-04T00:17:59.722Z,7.90
2023-02-04T00:20:28.306Z,7.90
2023-02-04T00:22:57.203Z,7.90
2023-02-04T00:25:27.354Z,7.90
2023-02-04T00:27:55.754Z,7.90
2023-02-04T00:30:24.045Z,7.90
2023-02-04T00:32:54.996Z,7.90
2023-02-04T00:35:23.412Z,7.80
2023-02-04T00:37:51.961Z,7.80
2023-02-04T00:40:20.874Z,7.80
2023-02-04T00:42:50.621Z,7.80
2023-02-04T00:45:18.987Z,7.80
2023-02-04T00:47:47.400Z,7.70
2023-02-04T00:50:15.951Z,7.70
2023-02-04T00:52:44.298Z,7.70
2023-02-04T00:55:12.887Z,7.70
2023-02-04T00:57:41.219Z,7.70
2023-02-04T01:00:13.291Z,7.70
2023-02-04T01:02:41.664Z,7.70
2023-02-04T01:05:11.525Z,7.70
2023-02-04T01:07:39.985Z,7.70
2023-02-04T01:10:08.838Z,7.60
2023-02-04T01:12:37.416Z,7.70
2023-02-04T01:15:06.518Z,7.60
2023-02-04T01:17:36.244Z,7.60
2023-02-04T01:20:04.822Z,7.60
2023-02-04T01:22:33.095Z,7.60
2023-02-04T01:25:01.503Z,7.60
2023-02-04T01:27:29.794Z,7.60
2023-02-04T01:29:58.175Z,7.60
2023-02-04T01:32:26.592Z,7.50
2023-02-04T01:34:57.253Z,7.50
2023-02-04T01:37:25.641Z,7.50
2023-02-04T01:39:54.033Z,7.50
2023-02-04T01:42:22.550Z,7.50
2023-02-04T01:44:51.198Z,7.50
2023-02-04T01:47:19.829Z,7.50
2023-02-04T01:49:52.856Z,7.50
2023-02-04T01:52:23.473Z,7.40
2023-02-04T01:54:52.770Z,7.40
2023-02-04T01:57:21.233Z,7.30
2023-02-04T01:59:57.201Z,7.30
2023-02-04T02:02:48.469Z,7.30
2023-02-04T02:05:18.498Z,7.20
2023-02-04T02:07:48.413Z,7.20
2023-02-04T02:10:18.359Z,7.20
2023-02-04T02:12:47.313Z,7.20
2023-02-04T02:15:17.329Z,7.20
2023-02-04T02:17:46.255Z,7.20
2023-02-04T02:20:18.546Z,7.10
2023-02-04T02:23:01.019Z,7.10
2023-02-04T02:25:30.709Z,7.10
2023-02-04T02:28:01.763Z,7.00
2023-02-04T02:30:31.176Z,7.00
2023-02-04T02:33:00.218Z,7.00
2023-02-04T02:35:28.677Z,7.00
2023-02-04T02:37:57.106Z,7.10
2023-02-04T02:40:25.707Z,7.00
2023-02-04T02:42:56.052Z,7.10
2023-02-04T02:45:27.157Z,7.00
2023-02-04T02:47:57.438Z,7.00
2023-02-04T02:50:29.243Z,7.00
2023-02-04T02:52:58.205Z,7.10
2023-02-04T02:55:28.632Z,7.10
2023-02-04T02:57:58.782Z,7.10
2023-02-04T03:00:30.866Z,7.10
2023-02-04T03:03:08.856Z,7.00
2023-02-04T03:05:41.402Z,7.00
2023-02-04T03:08:10.377Z,7.00
2023-02-04T03:10:38.995Z,7.00
2023-02-04T03:13:08.902Z,6.90
2023-02-04T03:15:37.459Z,7.00
2023-02-04T03:18:06.099Z,7.00
2023-02-04T03:20:35.182Z,6.90
2023-02-04T03:23:03.456Z,7.00
2023-02-04T03:25:31.817Z,6.90
2023-02-04T03:28:00.947Z,6.90
2023-02-04T03:30:30.980Z,6.80
2023-02-04T03:32:59.539Z,6.80
2023-02-04T03:35:27.965Z,6.80
2023-02-04T03:37:56.407Z,6.70
2023-02-04T03:40:24.715Z,6.70
2023-02-04T03:42:53.026Z,6.70
2023-02-04T03:45:21.330Z,6.70
2023-02-04T03:47:51.090Z,6.70
2023-02-04T03:50:20.769Z,6.70
2023-02-04T03:52:51.447Z,6.70
2023-02-04T03:55:19.738Z,6.70
2023-02-04T03:57:48.601Z,6.70
2023-02-04T04:00:17.567Z,6.70
2023-02-04T04:02:46.021Z,6.60
2023-02-04T04:05:15.800Z,6.60
2023-02-04T04:07:45.092Z,6.60
2023-02-04T04:10:13.737Z,6.60
2023-02-04T04:12:42.020Z,6.60
2023-02-04T04:15:11.065Z,6.50
2023-02-04T04:17:39.370Z,6.50
2023-02-04T04:20:08.364Z,6.50
2023-02-04T04:22:38.041Z,6.60
2023-02-04T04:25:07.242Z,6.60
2023-02-04T04:27:35.657Z,6.60
2023-02-04T04:30:04.105Z,6.60
2023-02-04T04:32:32.378Z,6.60
2023-02-04T04:35:00.768Z,6.50
2023-02-04T04:37:29.201Z,6.50
2023-02-04T04:40:00.391Z,6.40
2023-02-04T04:42:28.757Z,6.50
2023-02-04T04:44:57.110Z,6.40
2023-02-04T04:47:25.792Z,6.40
2023-02-04T04:49:54.096Z,6.40
2023-02-04T04:52:22.403Z,6.30
2023-02-04T04:54:50.659Z,6.30
2023-02-04T04:57:20.318Z,6.30
2023-02-04T04:59:48.627Z,6.30
2023-02-04T05:02:17.095Z,6.20
2023-02-04T05:04:45.538Z,6.20
2023-02-04T05:07:13.950Z,6.20
2023-02-04T05:09:42.286Z,6.20
2023-02-04T05:12:10.662Z,6.20
2023-02-04T05:14:40.337Z,6.10
2023-02-04T05:17:08.708Z,6.20
2023-02-04T05:19:37.115Z,6.20
2023-02-04T05:22:05.450Z,6.20
2023-02-04T05:24:33.775Z,6.20
2023-02-04T05:27:02.062Z,6.20
2023-02-04T05:29:30.331Z,6.20
2023-02-04T05:32:00.001Z,6.20
2023-02-04T05:34:28.287Z,6.20
2023-02-04T05:36:56.694Z,6.20
2023-02-04T05:39:25.044Z,6.10
2023-02-04T05:41:53.412Z,6.10
2023-02-04T05:44:21.842Z,6.10
2023-02-04T05:46:50.166Z,6.10
2023-02-04T05:49:20.041Z,6.10
2023-02-04T05:51:48.415Z,6.10
2023-02-04T05:54:19.616Z,6.10
2023-02-04T05:56:48.874Z,6.10
2023-02-04T05:59:17.175Z,6.10
2023-02-04T06:01:45.505Z,6.10
2023-02-04T06:04:15.412Z,6.10
2023-02-04T06:06:45.519Z,6.10
2023-02-04T06:09:14.080Z,6.20
2023-02-04T06:11:42.397Z,6.20
2023-02-04T06:14:11.018Z,6.20
2023-02-04T06:16:39.336Z,6.10
2023-02-04T06:19:07.712Z,6.10
2023-02-04T06:21:36.040Z,6.10
2023-02-04T06:24:06.548Z,6.20
2023-02-04T06:26:34.885Z,6.20
2023-02-04T06:29:03.355Z,6.20
2023-02-04T06:31:32.107Z,6.10
2023-02-04T06:34:00.473Z,6.20
2023-02-04T06:36:28.806Z,6.10
2023-02-04T06:38:57.623Z,6.20
2023-02-04T06:41:27.606Z,6.20
2023-02-04T06:43:55.913Z,6.20
2023-02-04T06:46:24.279Z,6.20
2023-02-04T06:48:52.641Z,6.20
2023-02-04T06:51:20.940Z,6.20
2023-02-04T06:53:49.211Z,6.20
2023-02-04T06:56:17.547Z,6.20
2023-02-04T06:58:47.290Z,6.20
2023-02-04T07:01:15.604Z,6.20
2023-02-04T07:03:43.969Z,6.20
2023-02-04T07:06:12.324Z,6.30
2023-02-04T07:08:40.707Z,6.20
2023-02-04T07:11:09.301Z,6.20
2023-02-04T07:13:37.571Z,6.20
2023-02-04T07:16:08.473Z,6.20
2023-02-04T07:18:36.852Z,6.30
2023-02-04T07:21:05.359Z,6.30
2023-02-04T07:23:33.718Z,6.30
2023-02-04T07:26:02.479Z,6.30
2023-02-04T07:28:31.562Z,6.30
2023-02-04T07:30:59.993Z,6.30
2023-02-04T07:33:29.757Z,6.30
2023-02-04T07:35:58.125Z,6.40
2023-02-04T07:38:26.521Z,6.40
2023-02-04T07:40:55.233Z,6.40
2023-02-04T07:43:24.007Z,6.40
2023-02-04T07:45:52.315Z,6.40
2023-02-04T07:48:20.573Z,6.50
2023-02-04T07:50:50.302Z,6.50
2023-02-04T07:53:18.585Z,6.50
2023-02-04T07:55:46.922Z,6.50
2023-02-04T07:58:15.210Z,6.50
2023-02-04T08:00:43.519Z,6.60
2023-02-04T08:03:11.914Z,6.60
2023-02-04T08:05:40.420Z,6.60
2023-02-04T08:08:10.173Z,6.60
2023-02-04T08:10:38.664Z,6.60
2023-02-04T08:13:07.018Z,6.60
2023-02-04T08:15:35.406Z,6.70
2023-02-04T08:18:03.874Z,6.60
2023-02-04T08:20:32.963Z,6.70
2023-02-04T08:23:01.581Z,6.70
2023-02-04T08:25:31.267Z,6.80
2023-02-04T08:27:59.626Z,6.80
2023-02-04T08:30:28.216Z,6.80
2023-02-04T08:32:56.600Z,6.90
2023-02-04T08:35:24.895Z,6.90
2023-02-04T08:37:53.237Z,6.90
2023-02-04T08:40:23.757Z,6.90
2023-02-04T08:42:53.546Z,6.90
2023-02-04T08:45:22.213Z,7.00
2023-02-04T08:47:50.864Z,7.00
2023-02-04T08:50:19.467Z,7.00
2023-02-04T08:52:47.823Z,7.00
2023-02-04T08:55:16.889Z,7.10
2023-02-04T08:57:45.192Z,7.10
2023-02-04T09:00:17.231Z,7.10
2023-02-04T09:02:45.686Z,7.20
2023-02-04T09:05:14.076Z,7.20
2023-02-04T09:07:42.425Z,7.20
2023-02-04T09:10:11.342Z,7.20
2023-02-04T09:12:39.710Z,7.30
2023-02-04T09:15:08.989Z,7.30
2023-02-04T09:17:39.091Z,7.40
2023-02-04T09:20:08.674Z,7.40
2023-02-04T09:22:37.855Z,7.50
2023-02-04T09:25:07.067Z,7.50
2023-02-04T09:27:35.457Z,7.50
2023-02-04T09:30:03.770Z,7.50
2023-02-04T09:32:32.108Z,7.50
2023-02-04T09:35:01.869Z,7.60
2023-02-04T09:37:30.226Z,7.60
2023-02-04T09:39:58.561Z,7.60
2023-02-04T09:42:28.120Z,7.70
2023-02-04T09:44:56.613Z,7.70
2023-02-04T09:47:26.697Z,7.70
2023-02-04T09:49:55.108Z,7.80
2023-02-04T09:52:24.957Z,7.80
2023-02-04T09:54:53.371Z,7.90
2023-02-04T09:57:22.248Z,7.90
2023-02-04T09:59:52.868Z,7.90
2023-02-04T10:02:26.576Z,8.00
2023-02-04T10:04:58.664Z,8.00
2023-02-04T10:07:28.967Z,8.10
2023-02-04T10:09:57.561Z,8.10
2023-02-04T10:12:27.323Z,8.10
2023-02-04T10:14:55.680Z,8.10
2023-02-04T10:17:24.515Z,8.10
2023-02-04T10:19:53.174Z,8.20
2023-02-04T10:22:23.846Z,8.20
2023-02-04T10:24:53.498Z,8.20
2023-02-04T10:27:21.831Z,8.20
2023-02-04T10:29:57.767Z,8.30
2023-02-04T10:32:32.618Z,8.30
2023-02-04T10:35:05.032Z,8.40
2023-02-04T10:37:33.398Z,8.40
2023-02-04T10:40:03.069Z,8.50
2023-02-04T10:42:32.763Z,8.70
2023-02-04T10:45:01.237Z,8.70
2023-02-04T10:47:31.686Z,8.90
2023-02-04T10:50:04.796Z,9.00
2023-02-04T10:52:37.884Z,9.10
2023-02-04T10:55:13.481Z,9.30
2023-02-04T10:57:44.244Z,9.40
2023-02-04T11:00:18.951Z,9.50
2023-02-04T11:02:59.565Z,9.50
2023-02-04T11:05:33.187Z,9.50
2023-02-04T11:08:03.185Z,9.90
2023-02-04T11:10:35.386Z,10.10
2023-02-04T11:13:07.340Z,10.20
2023-02-04T11:15:46.402Z,10.40
2023-02-04T11:18:31.059Z,10.50
2023-02-04T11:21:00.738Z,10.50
2023-02-04T11:23:37.657Z,10.40
2023-02-04T11:26:14.549Z,10.70
2023-02-04T11:28:57.092Z,10.90
2023-02-04T11:31:57.317Z,11.10
2023-02-04T11:34:33.603Z,11.20
2023-02-04T11:37:19.668Z,11.20
2023-02-04T11:39:50.142Z,11.10
2023-02-04T11:42:25.763Z,11.20
2023-02-04T11:44:56.148Z,11.20
2023-02-04T11:47:27.459Z,11.40
2023-02-04T11:50:01.175Z,11.30
2023-02-04T11:52:29.642Z,11.40
2023-02-04T11:55:00.785Z,11.60
2023-02-04T11:57:30.671Z,11.70
2023-02-04T12:00:01.142Z,11.60
2023-02-04T12:02:29.520Z,11.60
2023-02-04T12:04:59.771Z,11.40
2023-02-04T12:07:30.929Z,11.50
2023-02-04T12:09:59.666Z,11.40
2023-02-04T12:12:31.813Z,11.20
2023-02-04T12:15:05.788Z,11.20
2023-02-04T12:17:34.160Z,11.00
2023-02-04T12:20:02.453Z,10.90
2023-02-04T12:22:30.764Z,11.00
2023-02-04T12:24:59.088Z,11.20
2023-02-04T12:27:29.163Z,11.10
2023-02-04T12:29:57.515Z,11.10
2023-02-04T12:32:25.875Z,11.00
2023-02-04T12:34:54.186Z,11.00
2023-02-04T12:37:22.425Z,10.90
2023-02-04T12:39:50.749Z,10.80
2023-02-04T12:42:19.339Z,10.70
2023-02-04T12:44:49.080Z,10.90
2023-02-04T12:47:17.415Z,10.90
2023-02-04T12:49:46.634Z,10.80
2023-02-04T12:52:14.977Z,10.90
2023-02-04T12:54:43.735Z,10.70
2023-02-04T12:57:12.175Z,10.60
2023-02-04T12:59:40.540Z,10.50
2023-02-04T13:02:11.654Z,10.40
2023-02-04T13:04:40.539Z,10.30
2023-02-04T13:07:09.318Z,10.40
2023-02-04T13:09:38.155Z,10.40
2023-02-04T13:12:06.869Z,10.40
2023-02-04T13:14:35.193Z,10.40
2023-02-04T13:17:03.517Z,10.40
2023-02-04T13:19:33.546Z,10.40
2023-02-04T13:22:02.269Z,10.50
2023-02-04T13:24:30.882Z,10.40
2023-02-04T13:26:59.214Z,10.30
2023-02-04T13:29:27.537Z,10.30
2023-02-04T13:31:56.026Z,10.30
2023-02-04T13:34:24.420Z,10.20
2023-02-04T13:36:54.708Z,10.20
2023-02-04T13:39:23.088Z,10.20
2023-02-04T13:41:51.445Z,10.20
2023-02-04T13:44:20.066Z,10.20
2023-02-04T13:46:48.409Z,10.20
2023-02-04T13:49:16.716Z,10.30
2023-02-04T13:51:45.016Z,10.30
2023-02-04T13:54:15.522Z,10.30
2023-02-04T13:56:43.834Z,10.30
2023-02-04T13:59:12.244Z,10.30
2023-02-04T14:01:40.676Z,10.40
2023-02-04T14:04:09.011Z,10.40
2023-02-04T14:06:43.450Z,10.50
2023-02-04T14:09:14.043Z,10.50
2023-02-04T14:11:42.629Z,10.50
2023-02-04T14:14:11.016Z,10.50
2023-02-04T14:16:39.400Z,10.50
2023-02-04T14:19:09.371Z,10.50
2023-02-04T14:21:37.642Z,10.60
2023-02-04T14:24:06.471Z,10.60
2023-02-04T14:26:36.149Z,10.60
2023-02-04T14:29:04.581Z,10.60
2023-02-04T14:31:32.985Z,10.60
2023-02-04T14:34:01.534Z,10.50
2023-02-04T14:36:29.878Z,10.50
2023-02-04T14:38:58.202Z,10.50
2023-02-04T14:41:26.565Z,10.50
2023-02-04T14:43:56.261Z,10.40
2023-02-04T14:46:27.664Z,10.40
2023-02-04T14:48:56.023Z,10.40
2023-02-04T14:51:24.393Z,10.40
2023-02-04T14:53:52.641Z,10.40
2023-02-04T14:56:20.941Z,10.30
2023-02-04T14:58:49.228Z,10.30
2023-02-04T15:01:19.873Z,10.30
2023-02-04T15:03:48.221Z,10.30
2023-02-04T15:06:16.508Z,10.20
2023-02-04T15:08:45.541Z,10.20
2023-02-04T15:11:14.254Z,10.20
2023-02-04T15:13:42.636Z,10.20
2023-02-04T15:16:12.362Z,10.20
2023-02-04T15:18:42.310Z,10.20
2023-02-04T15:21:11.554Z,10.00
2023-02-04T15:23:39.821Z,10.10
2023-02-04T15:26:08.343Z,10.00
2023-02-04T15:28:37.403Z,10.00
2023-02-04T15:31:06.229Z,10.00
2023-02-04T15:33:34.609Z,10.00
2023-02-04T15:36:04.548Z,9.90
2023-02-04T15:38:32.825Z,9.90
2023-02-04T15:41:01.530Z,9.90
2023-02-04T15:43:29.819Z,9.90
2023-02-04T15:45:58.246Z,9.90
2023-02-04T15:48:27.648Z,9.90
2023-02-04T15:50:56.473Z,9.90
2023-02-04T15:53:26.718Z,9.80
2023-02-04T15:55:55.118Z,9.80
2023-02-04T15:58:23.448Z,9.80
2023-02-04T16:00:51.722Z,9.70
2023-02-04T16:03:20.012Z,9.70
2023-02-04T16:05:48.377Z,9.70
2023-02-04T16:08:16.659Z,9.70
2023-02-04T16:10:46.293Z,9.60
2023-02-04T16:13:14.569Z,9.60
2023-02-04T16:15:42.913Z,9.60
2023-02-04T16:18:11.199Z,9.60
2023-02-04T16:20:39.491Z,9.50
2023-02-04T16:23:08.188Z,9.50
2023-02-04T16:25:36.566Z,9.50
2023-02-04T16:28:06.442Z,9.50
2023-02-04T16:30:34.931Z,9.50
2023-02-04T16:33:03.225Z,9.50
2023-02-04T16:35:32.788Z,9.40
2023-02-04T16:38:01.492Z,9.40
2023-02-04T16:40:29.876Z,9.40
2023-02-04T16:42:58.152Z,9.30
2023-02-04T16:45:27.979Z,9.30
2023-02-04T16:47:56.312Z,9.30
2023-02-04T16:50:24.590Z,9.20
2023-02-04T16:52:52.892Z,9.20
2023-02-04T16:55:21.338Z,9.20
2023-02-04T16:57:49.760Z,9.10
2023-02-04T17:00:18.820Z,9.20
2023-02-04T17:02:48.692Z,9.00
2023-02-04T17:05:17.101Z,9.00
2023-02-04T17:07:45.470Z,8.90
2023-02-04T17:10:13.761Z,8.90
2023-02-04T17:12:42.149Z,8.80
2023-02-04T17:15:11.198Z,8.80
2023-02-04T17:17:39.545Z,8.90
2023-02-04T17:20:10.657Z,8.80
2023-02-04T17:22:39.022Z,8.80
2023-02-04T17:25:08.210Z,8.80
2023-02-04T17:27:36.483Z,8.70
2023-02-04T17:30:05.458Z,8.70
2023-02-04T17:32:34.589Z,8.70
2023-02-04T17:35:03.053Z,8.70
2023-02-04T17:37:33.348Z,8.70
2023-02-04T17:40:01.754Z,8.70
2023-02-04T17:42:30.422Z,8.70
2023-02-04T17:44:58.709Z,8.70
2023-02-04T17:47:27.112Z,8.70
2023-02-04T17:49:56.100Z,8.70
2023-02-04T17:52:26.578Z,8.70
2023-02-04T17:54:56.297Z,8.60
2023-02-04T17:57:24.550Z,8.60
2023-02-04T17:59:52.925Z,8.50
2023-02-04T18:02:27.724Z,8.50
2023-02-04T18:05:00.840Z,8.50
2023-02-04T18:07:29.352Z,8.50
2023-02-04T18:10:19.139Z,8.50
2023-02-04T18:12:47.451Z,8.40
2023-02-04T18:15:28.564Z,8.40
2023-02-04T18:18:01.856Z,8.30
2023-02-04T18:20:30.498Z,8.30
2023-02-04T18:23:04.713Z,8.20
2023-02-04T18:25:34.998Z,8.20
2023-02-04T18:28:11.397Z,8.20
2023-02-04T18:30:39.838Z,8.20
2023-02-04T18:33:16.706Z,8.10
2023-02-04T18:35:48.280Z,8.10
2023-02-04T18:38:24.980Z,8.00
2023-02-04T18:41:03.541Z,8.00
2023-02-04T18:43:38.124Z,8.00
2023-02-04T18:46:22.754Z,8.00
2023-02-04T18:49:07.404Z,7.90
2023-02-04T18:51:40.758Z,7.90
2023-02-04T18:54:36.617Z,7.90
2023-02-04T18:57:30.400Z,7.90
2023-02-04T19:00:27.670Z,7.90
2023-02-04T19:02:59.868Z,7.90
2023-02-04T19:05:34.033Z,7.90
2023-02-04T19:08:33.289Z,8.00
2023-02-04T19:11:01.850Z,7.90
2023-02-04T19:13:40.756Z,7.80
2023-02-04T19:16:23.422Z,7.90
2023-02-04T19:18:54.318Z,7.80
2023-02-04T19:21:30.064Z,7.70
2023-02-04T19:24:13.050Z,7.70
2023-02-04T19:26:45.238Z,7.60
2023-02-04T19:29:43.706Z,7.50
2023-02-04T19:32:29.385Z,7.50
2023-02-04T19:35:02.836Z,7.40
2023-02-04T19:37:40.870Z,7.40
2023-02-04T19:40:38.583Z,7.40
2023-02-04T19:43:22.419Z,7.40
2023-02-04T19:45:52.817Z,7.30
2023-02-04T19:48:26.162Z,7.30
2023-02-04T19:50:54.941Z,7.30
2023-02-04T19:53:29.820Z,7.30
2023-02-04T19:55:58.171Z,7.20
2023-02-04T19:58:31.058Z,7.20
2023-02-04T20:01:03.238Z,7.30
2023-02-04T20:03:37.949Z,7.30
2023-02-04T20:06:31.490Z,7.30
2023-02-04T20:09:07.259Z,7.30
2023-02-04T20:11:58.142Z,7.30
2023-02-04T20:14:47.523Z,7.30
2023-02-04T20:17:38.286Z,7.30
2023-02-04T20:20:26.284Z,7.20
2023-02-04T20:22:57.391Z,7.20
2023-02-04T20:25:47.025Z,7.20
2023-02-04T20:28:41.048Z,7.20
2023-02-04T20:31:23.962Z,7.20
2023-02-04T20:33:56.405Z,7.20
2023-02-04T20:36:42.611Z,7.20
2023-02-04T20:39:38.222Z,7.30
2023-02-04T20:42:36.101Z,7.30
2023-02-04T20:45:35.350Z,7.30
2023-02-04T20:48:28.269Z,7.30
2023-02-04T20:51:01.426Z,7.30
2023-02-04T20:53:37.735Z,7.20
2023-02-04T20:56:24.180Z,7.30
2023-02-04T20:58:55.703Z,7.20
2023-02-04T21:01:33.953Z,7.20
2023-02-04T21:04:16.101Z,7.20
2023-02-04T21:06:46.647Z,7.30
2023-02-04T21:09:24.423Z,7.20
2023-02-04T21:11:54.203Z,7.20
2023-02-04T21:14:22.640Z,7.30
2023-02-04T21:16:51.141Z,7.30
2023-02-04T21:19:20.069Z,7.30
2023-02-04T21:21:50.169Z,7.30
2023-02-04T21:24:18.993Z,7.30
2023-02-04T21:26:47.311Z,7.30
2023-02-04T21:29:15.863Z,7.40
2023-02-04T21:31:44.967Z,7.30
2023-02-04T21:34:13.613Z,7.30
2023-02-04T21:36:41.972Z,7.30
2023-02-04T21:39:11.683Z,7.30
2023-02-04T21:41:39.990Z,7.30
2023-02-04T21:44:08.379Z,7.30
2023-02-04T21:46:36.732Z,7.30
2023-02-04T21:49:05.438Z,7.30
2023-02-04T21:51:33.724Z,7.30
2023-02-04T21:54:04.518Z,7.20
2023-02-04T21:56:34.385Z,7.20
2023-02-04T21:59:03.521Z,7.30
2023-02-04T22:01:31.861Z,7.30
2023-02-04T22:04:00.195Z,7.20
2023-02-04T22:06:28.734Z,7.30
2023-02-04T22:08:57.152Z,7.20
2023-02-04T22:11:25.560Z,7.20
2023-02-04T22:13:55.286Z,7.20
2023-02-04T22:16:23.765Z,7.20
2023-02-04T22:18:52.116Z,7.20
2023-02-04T22:21:20.455Z,7.20
2023-02-04T22:23:48.753Z,7.20
2023-02-04T22:26:17.051Z,7.10
2023-02-04T22:28:45.343Z,7.10
2023-02-04T22:31:15.148Z,7.10
2023-02-04T22:33:43.456Z,7.10
2023-02-04T22:36:12.323Z,7.10
2023-02-04T22:38:40.691Z,7.10
2023-02-04T22:41:09.015Z,7.10
2023-02-04T22:43:37.596Z,7.10
2023-02-04T22:46:06.330Z,7.10
2023-02-04T22:48:36.620Z,7.20
2023-02-04T22:51:05.223Z,7.10
2023-02-04T22:53:33.483Z,7.10
2023-02-04T22:56:01.901Z,7.00
2023-02-04T22:58:30.191Z,7.10
2023-02-04T23:00:58.782Z,7.10
2023-02-04T23:03:27.118Z,7.20
2023-02-04T23:05:56.804Z,7.20
2023-02-04T23:08:25.221Z,7.20
2023-02-04T23:10:53.624Z,7.20
2023-02-04T23:13:22.034Z,7.20
2023-02-04T23:15:50.514Z,7.20
2023-02-04T23:18:18.786Z,7.20
2023-02-04T23:20:47.313Z,7.20
2023-02-04T23:23:19.068Z,7.30
2023-02-04T23:25:48.516Z,7.20
2023-02-04T23:28:17.860Z,7.20
2023-02-04T23:30:46.423Z,7.20
2023-02-04T23:33:14.741Z,7.20
2023-02-04T23:35:43.132Z,7.20
2023-02-04T23:38:11.398Z,7.20
2023-02-04T23:40:41.115Z,7.20
2023-02-04T23:43:10.896Z,7.20
2023-02-04T23:45:39.396Z,7.20
2023-02-04T23:48:08.432Z,7.20
2023-02-04T23:50:36.962Z,7.20
2023-02-04T23:53:05.585Z,7.20
2023-02-04T23:55:34.331Z,7.20
2023-02-04T23:58:04.326Z,7.10
